createdAt,value
2023-07-21T00:00:35.416Z,2.58
2023-07-21T00:03:06.184Z,2.62
2023-07-21T00:05:34.139Z,2.30
2023-07-21T00:08:02.041Z,2.50
2023-07-21T00:10:29.620Z,2.70
2023-07-21T00:12:57.420Z,2.58
2023-07-21T00:15:25.343Z,2.50
2023-07-21T00:17:59.198Z,2.58
2023-07-21T00:20:27.154Z,2.65
2023-07-21T00:22:54.843Z,2.67
2023-07-21T00:25:22.743Z,2.12
2023-07-21T00:27:50.492Z,2.35
2023-07-21T00:30:18.898Z,2.30
2023-07-21T00:32:46.769Z,2.45
2023-07-21T00:35:14.490Z,2.92
2023-07-21T00:37:42.424Z,3.40
2023-07-21T00:40:10.787Z,3.05
2023-07-21T00:42:38.779Z,3.20
2023-07-21T00:45:08.429Z,3.00
2023-07-21T00:47:37.091Z,2.90
2023-07-21T00:50:05.783Z,3.10
2023-07-21T00:52:33.588Z,2.90
2023-07-21T00:55:02.307Z,3.35
2023-07-21T00:57:33.004Z,3.08
2023-07-21T01:00:01.705Z,3.25
2023-07-21T01:02:33.555Z,3.20
2023-07-21T01:05:01.742Z,2.98
2023-07-21T01:07:31.887Z,3.40
2023-07-21T01:09:59.866Z,2.77
2023-07-21T01:12:28.109Z,3.15
2023-07-21T01:14:55.909Z,3.05
2023-07-21T01:17:24.983Z,2.62
2023-07-21T01:19:53.366Z,2.85
2023-07-21T01:22:44.626Z,2.70
2023-07-21T01:25:14.834Z,2.72
2023-07-21T01:27:45.021Z,2.50
2023-07-21T01:30:15.861Z,2.65
2023-07-21T01:32:46.650Z,3.30
2023-07-21T01:35:17.475Z,3.05
2023-07-21T01:37:47.453Z,3.12
2023-07-21T01:40:16.746Z,3.05
2023-07-21T01:42:47.663Z,2.85
2023-07-21T01:45:15.872Z,2.67
2023-07-21T01:47:49.355Z,3.15
2023-07-21T01:50:19.421Z,3.17
2023-07-21T01:52:48.652Z,2.92
2023-07-21T01:55:39.953Z,2.95
2023-07-21T01:58:09.040Z,2.95
2023-07-21T02:00:50.645Z,3.40
2023-07-21T02:03:11.625Z,3.00
2023-07-21T02:05:39.568Z,3.00
2023-07-21T02:08:07.255Z,3.27
2023-07-21T02:10:35.341Z,3.37
2023-07-21T02:13:05.651Z,2.83
2023-07-21T02:15:33.570Z,3.55
2023-07-21T02:18:01.308Z,2.77
2023-07-21T02:20:28.947Z,2.77
2023-07-21T02:22:56.878Z,2.70
2023-07-21T02:25:25.374Z,3.47
2023-07-21T02:27:53.097Z,3.37
2023-07-21T02:30:21.035Z,3.42
2023-07-21T02:32:50.825Z,3.00
2023-07-21T02:35:18.745Z,2.92
2023-07-21T02:37:47.444Z,2.92
2023-07-21T02:40:16.518Z,2.85
2023-07-21T02:42:44.442Z,2.90
2023-07-21T02:45:12.547Z,2.85
2023-07-21T02:47:40.616Z,2.33
2023-07-21T02:50:10.947Z,2.62
2023-07-21T02:52:39.634Z,2.85
2023-07-21T02:55:08.273Z,2.67
2023-07-21T02:57:37.176Z,2.70
2023-07-21T03:00:06.823Z,2.92
2023-07-21T03:02:36.648Z,3.08
2023-07-21T03:05:05.650Z,2.60
2023-07-21T03:07:33.685Z,3.75
2023-07-21T03:10:03.344Z,2.58
2023-07-21T03:12:33.690Z,2.62
2023-07-21T03:15:07.239Z,2.25
2023-07-21T03:17:37.403Z,3.02
2023-07-21T03:20:08.833Z,2.67
2023-07-21T03:22:36.389Z,2.72
2023-07-21T03:25:07.080Z,2.30
2023-07-21T03:27:35.127Z,2.70
2023-07-21T03:30:03.735Z,2.40
2023-07-21T03:32:32.247Z,2.25
2023-07-21T03:35:01.879Z,2.40
2023-07-21T03:37:31.603Z,2.35
2023-07-21T03:39:59.372Z,2.40
2023-07-21T03:42:27.761Z,2.50
2023-07-21T03:44:55.789Z,2.75
2023-07-21T03:47:23.586Z,2.00
2023-07-21T03:49:56.468Z,2.05
2023-07-21T03:52:24.478Z,2.20
2023-07-21T03:54:52.059Z,2.20
2023-07-21T03:57:21.161Z,2.20
2023-07-21T03:59:49.395Z,2.20
2023-07-21T04:02:18.115Z,2.22
2023-07-21T04:04:47.334Z,2.12
2023-07-21T04:07:15.368Z,2.08
2023-07-21T04:09:42.864Z,2.08
2023-07-21T04:12:10.598Z,2.20
2023-07-21T04:14:38.540Z,2.05
2023-07-21T04:17:06.548Z,2.47
2023-07-21T04:19:34.058Z,2.05
2023-07-21T04:22:02.932Z,2.20
2023-07-21T04:24:30.763Z,2.25
2023-07-21T04:26:58.562Z,1.90
2023-07-21T04:29:36.379Z,4.08
2023-07-21T04:31:55.851Z,10.32
2023-07-21T04:34:23.569Z,13.72
2023-07-21T04:36:51.509Z,3.33
2023-07-21T04:39:24.897Z,4.05
2023-07-21T04:41:52.859Z,3.25
2023-07-21T04:44:21.299Z,2.85
2023-07-21T04:46:49.453Z,3.25
2023-07-21T04:49:19.267Z,2.90
2023-07-21T04:51:48.325Z,2.90
2023-07-21T04:54:15.666Z,2.77
2023-07-21T04:56:44.694Z,2.45
2023-07-21T04:59:13.201Z,2.90
2023-07-21T05:01:41.847Z,2.67
2023-07-21T05:04:09.478Z,2.90
2023-07-21T05:06:38.895Z,2.92
2023-07-21T05:09:06.760Z,2.15
2023-07-21T05:11:34.719Z,2.15
2023-07-21T05:14:04.122Z,2.37
2023-07-21T05:16:35.579Z,2.25
2023-07-21T05:19:21.482Z,1.95
2023-07-21T05:21:49.072Z,1.98
2023-07-21T05:24:24.650Z,2.30
2023-07-21T05:26:53.481Z,1.95
2023-07-21T05:29:23.398Z,2.67
2023-07-21T05:31:52.782Z,1.55
2023-07-21T05:34:22.409Z,2.02
2023-07-21T05:36:52.186Z,2.08
2023-07-21T05:39:20.065Z,2.40
2023-07-21T05:41:48.017Z,3.67
2023-07-21T05:44:15.787Z,2.72
2023-07-21T05:46:45.279Z,2.22
2023-07-21T05:49:15.143Z,2.70
2023-07-21T05:51:42.812Z,2.47
2023-07-21T05:54:21.120Z,2.20
2023-07-21T05:56:49.006Z,2.67
2023-07-21T05:59:24.423Z,2.10
2023-07-21T06:01:52.396Z,2.72
2023-07-21T06:04:21.202Z,2.65
2023-07-21T06:06:51.360Z,2.27
2023-07-21T06:09:20.803Z,2.52
2023-07-21T06:11:50.345Z,2.35
2023-07-21T06:14:22.808Z,2.90
2023-07-21T06:16:52.483Z,2.30
2023-07-21T06:19:20.286Z,3.92
2023-07-21T06:21:48.076Z,3.55
2023-07-21T06:24:16.115Z,3.40
2023-07-21T06:26:43.865Z,3.30
2023-07-21T06:29:13.202Z,3.40
2023-07-21T06:31:41.177Z,3.08
2023-07-21T06:34:26.919Z,3.02
2023-07-21T06:37:11.640Z,3.12
2023-07-21T06:39:49.632Z,3.33
2023-07-21T06:42:31.036Z,3.17
2023-07-21T06:45:10.529Z,3.30
2023-07-21T06:47:52.477Z,3.65
2023-07-21T06:50:22.751Z,3.47
2023-07-21T06:52:52.958Z,3.25
2023-07-21T06:55:22.608Z,3.12
2023-07-21T06:57:50.813Z,3.55
2023-07-21T07:00:18.998Z,3.50
2023-07-21T07:02:48.821Z,3.05
2023-07-21T07:05:17.571Z,3.10
2023-07-21T07:07:45.688Z,2.87
2023-07-21T07:10:13.635Z,3.10
2023-07-21T07:12:41.608Z,3.15
2023-07-21T07:15:11.837Z,3.10
2023-07-21T07:17:39.622Z,2.85
2023-07-21T07:20:10.483Z,3.12
2023-07-21T07:22:39.141Z,3.20
2023-07-21T07:25:08.122Z,3.10
2023-07-21T07:27:36.147Z,2.87
2023-07-21T07:30:06.121Z,3.27
2023-07-21T07:32:34.127Z,2.50
2023-07-21T07:35:01.605Z,3.10
2023-07-21T07:37:29.430Z,3.05
2023-07-21T07:39:57.803Z,2.75
2023-07-21T07:42:25.402Z,2.65
2023-07-21T07:44:55.039Z,3.65
2023-07-21T07:47:23.414Z,3.10
2023-07-21T07:49:51.259Z,3.20
2023-07-21T07:52:18.892Z,2.92
2023-07-21T07:54:46.595Z,3.30
2023-07-21T07:57:15.247Z,3.05
2023-07-21T07:59:43.062Z,3.17
2023-07-21T08:02:10.919Z,2.90
2023-07-21T08:04:38.614Z,2.85
2023-07-21T08:07:07.562Z,2.80
2023-07-21T08:09:35.253Z,2.60
2023-07-21T08:12:04.165Z,3.25
2023-07-21T08:14:31.871Z,3.10
2023-07-21T08:17:02.814Z,2.75
2023-07-21T08:19:33.988Z,2.83
2023-07-21T08:22:07.458Z,2.90
2023-07-21T08:24:35.561Z,2.45
2023-07-21T08:27:03.754Z,2.92
2023-07-21T08:29:31.578Z,2.83
2023-07-21T08:31:59.763Z,2.70
2023-07-21T08:34:30.227Z,3.30
2023-07-21T08:36:57.741Z,2.60
2023-07-21T08:39:25.672Z,2.50
2023-07-21T08:41:55.821Z,2.90
2023-07-21T08:44:25.932Z,2.33
2023-07-21T08:46:53.744Z,2.65
2023-07-21T08:49:25.195Z,2.30
2023-07-21T08:51:53.942Z,2.50
2023-07-21T08:54:23.892Z,2.80
2023-07-21T08:56:52.492Z,2.85
2023-07-21T08:59:20.630Z,2.33
2023-07-21T09:01:49.576Z,2.50
2023-07-21T09:04:23.953Z,2.37
2023-07-21T09:07:04.042Z,3.00
2023-07-21T09:09:33.679Z,2.45
2023-07-21T09:12:06.201Z,2.80
2023-07-21T09:14:44.897Z,2.20
2023-07-21T09:17:14.383Z,2.45
2023-07-21T09:19:46.558Z,2.45
2023-07-21T09:22:14.493Z,2.45
2023-07-21T09:24:51.298Z,2.45
2023-07-21T09:27:20.715Z,2.52
2023-07-21T09:29:48.753Z,2.30
2023-07-21T09:32:18.925Z,2.12
2023-07-21T09:35:05.628Z,2.37
2023-07-21T09:37:35.634Z,2.33
2023-07-21T09:40:08.712Z,2.20
2023-07-21T09:42:39.328Z,2.30
2023-07-21T09:45:08.398Z,3.25
2023-07-21T09:47:44.766Z,2.42
2023-07-21T09:50:12.105Z,2.52
2023-07-21T09:52:42.285Z,2.60
2023-07-21T09:55:15.076Z,2.95
2023-07-21T09:57:51.005Z,2.40
2023-07-21T10:00:23.868Z,2.50
2023-07-21T10:02:52.401Z,2.35
2023-07-21T10:05:20.891Z,2.50
2023-07-21T10:07:54.441Z,3.10
2023-07-21T10:10:23.144Z,2.52
2023-07-21T10:12:53.947Z,2.30
2023-07-21T10:15:33.376Z,2.40
2023-07-21T10:18:10.904Z,2.10
2023-07-21T10:20:55.673Z,2.30
2023-07-21T10:23:35.555Z,2.52
2023-07-21T10:26:05.573Z,1.70
2023-07-21T10:28:44.199Z,2.10
2023-07-21T10:31:30.294Z,2.60
2023-07-21T10:34:11.771Z,2.08
2023-07-21T10:36:54.095Z,2.15
2023-07-21T10:39:28.850Z,2.33
2023-07-21T10:44:41.208Z,2.33
2023-07-21T10:47:21.868Z,2.15
2023-07-21T10:49:50.168Z,2.40
2023-07-21T10:52:17.881Z,2.22
2023-07-21T10:54:45.626Z,2.60
2023-07-21T10:57:13.478Z,2.30
2023-07-21T10:59:41.076Z,3.02
2023-07-21T11:02:09.636Z,2.15
2023-07-21T11:04:41.161Z,1.75
2023-07-21T11:07:08.963Z,2.20
2023-07-21T11:09:42.697Z,2.30
2023-07-21T11:12:10.476Z,1.87
2023-07-21T11:14:38.379Z,2.10
2023-07-21T11:17:06.958Z,1.85
2023-07-21T11:19:35.942Z,3.50
2023-07-21T11:22:07.753Z,2.30
2023-07-21T11:24:35.814Z,1.95
2023-07-21T11:27:12.064Z,2.15
2023-07-21T11:29:44.128Z,2.08
2023-07-21T11:32:24.975Z,1.80
2023-07-21T11:34:57.489Z,2.10
2023-07-21T11:37:26.313Z,2.20
2023-07-21T11:40:04.942Z,2.20
2023-07-21T11:42:49.938Z,2.05
2023-07-21T11:45:40.840Z,1.72
2023-07-21T11:48:18.929Z,2.35
2023-07-21T11:50:54.924Z,2.20
2023-07-21T11:53:26.085Z,2.45
2023-07-21T11:55:54.953Z,2.08
2023-07-21T11:58:22.763Z,2.00
2023-07-21T12:00:51.129Z,2.05
2023-07-21T12:03:19.203Z,2.00
2023-07-21T12:05:48.298Z,1.60
2023-07-21T12:08:16.208Z,1.90
2023-07-21T12:10:43.991Z,2.22
2023-07-21T12:13:11.849Z,1.87
2023-07-21T12:15:39.769Z,2.47
2023-07-21T12:18:07.731Z,1.67
2023-07-21T12:20:35.553Z,2.22
2023-07-21T12:23:03.659Z,2.20
2023-07-21T12:25:34.660Z,2.00
2023-07-21T12:28:04.356Z,2.83
2023-07-21T12:30:34.077Z,1.87
2023-07-21T12:33:01.995Z,1.52
2023-07-21T12:35:29.587Z,2.00
2023-07-21T12:37:57.354Z,2.17
2023-07-21T12:40:25.338Z,1.40
2023-07-21T12:42:52.889Z,1.82
2023-07-21T12:45:20.329Z,1.60
2023-07-21T12:47:48.038Z,1.80
2023-07-21T12:50:15.805Z,2.17
2023-07-21T12:52:43.710Z,1.90
2023-07-21T12:55:11.483Z,1.70
2023-07-21T12:57:39.125Z,1.77
2023-07-21T13:00:10.592Z,2.02
2023-07-21T13:02:39.068Z,1.85
2023-07-21T13:05:08.058Z,1.70
2023-07-21T13:07:35.962Z,1.70
2023-07-21T13:10:04.257Z,2.00
2023-07-21T13:12:33.244Z,2.12
2023-07-21T13:15:01.500Z,1.90
2023-07-21T13:17:29.581Z,1.95
2023-07-21T13:19:57.580Z,1.90
2023-07-21T13:22:25.482Z,2.30
2023-07-21T13:24:53.478Z,2.55
2023-07-21T13:27:22.130Z,2.02
2023-07-21T13:29:49.898Z,2.50
2023-07-21T13:32:17.869Z,1.40
2023-07-21T13:34:45.976Z,2.12
2023-07-21T13:40:02.377Z,1.80
2023-07-21T13:42:29.928Z,1.80
2023-07-21T13:44:57.880Z,1.90
2023-07-21T13:47:26.244Z,1.90
2023-07-21T13:49:55.468Z,2.25
2023-07-21T13:52:23.099Z,1.92
2023-07-21T13:54:51.645Z,2.10
2023-07-21T13:57:19.236Z,1.70
2023-07-21T13:59:47.008Z,2.25
2023-07-21T14:02:14.447Z,2.20
2023-07-21T14:04:43.248Z,2.20
2023-07-21T14:07:11.042Z,1.67
2023-07-21T14:09:41.044Z,1.42
2023-07-21T14:12:08.501Z,1.85
2023-07-21T14:14:36.090Z,1.80
2023-07-21T14:17:04.314Z,1.85
2023-07-21T14:19:32.437Z,1.90
2023-07-21T14:22:00.683Z,2.50
2023-07-21T14:24:29.767Z,2.30
2023-07-21T14:26:57.650Z,2.00
2023-07-21T14:29:25.204Z,1.92
2023-07-21T14:31:53.128Z,2.10
2023-07-21T14:34:20.865Z,1.92
2023-07-21T14:36:50.397Z,1.95
2023-07-21T14:39:18.193Z,2.80
2023-07-21T14:41:45.665Z,2.27
2023-07-21T14:44:14.093Z,2.10
2023-07-21T14:46:41.973Z,1.75
2023-07-21T14:49:09.568Z,2.30
2023-07-21T14:51:38.913Z,2.15
2023-07-21T14:54:07.306Z,1.80
2023-07-21T14:56:36.705Z,2.15
2023-07-21T14:59:04.354Z,1.87
2023-07-21T15:01:32.077Z,2.25
2023-07-21T15:03:59.993Z,1.75
2023-07-21T15:06:28.161Z,2.10
2023-07-21T15:08:56.078Z,2.37
2023-07-21T15:11:23.980Z,3.00
2023-07-21T15:13:51.833Z,2.72
2023-07-21T15:16:19.633Z,3.08
2023-07-21T15:18:47.763Z,2.40
2023-07-21T15:21:15.578Z,2.35
2023-07-21T15:23:43.146Z,2.12
2023-07-21T15:26:10.955Z,1.85
2023-07-21T15:28:38.524Z,1.75
2023-07-21T15:31:07.509Z,2.10
2023-07-21T15:33:36.519Z,1.95
2023-07-21T15:36:04.845Z,2.05
2023-07-21T15:38:33.177Z,2.02
2023-07-21T15:41:01.870Z,2.20
2023-07-21T15:43:29.720Z,2.20
2023-07-21T15:45:58.236Z,2.50
2023-07-21T15:48:26.224Z,2.22
2023-07-21T15:50:53.972Z,2.40
2023-07-21T15:53:21.852Z,1.87
2023-07-21T15:55:50.258Z,2.15
2023-07-21T15:58:19.293Z,2.30
2023-07-21T16:00:47.648Z,2.85
2023-07-21T16:03:15.499Z,2.50
2023-07-21T16:05:43.163Z,4.10
2023-07-21T16:08:10.959Z,3.17
2023-07-21T16:10:38.616Z,3.27
2023-07-21T16:13:06.396Z,2.65
2023-07-21T16:15:34.007Z,2.62
2023-07-21T16:18:02.264Z,2.50
2023-07-21T16:20:30.086Z,2.50
2023-07-21T16:22:57.668Z,2.17
2023-07-21T16:25:25.352Z,2.17
2023-07-21T16:27:53.071Z,2.20
2023-07-21T16:30:21.487Z,2.42
2023-07-21T16:35:18.994Z,2.40
2023-07-21T16:37:46.405Z,2.58
2023-07-21T16:40:16.182Z,2.58
2023-07-21T16:42:45.168Z,2.30
2023-07-21T16:45:14.726Z,2.83
2023-07-21T16:47:43.184Z,3.05
2023-07-21T16:50:12.892Z,2.62
2023-07-21T16:52:40.812Z,2.70
2023-07-21T16:55:09.217Z,3.42
2023-07-21T16:57:36.793Z,2.98
2023-07-21T17:00:07.750Z,2.87
2023-07-21T17:02:35.424Z,2.90
2023-07-21T17:05:19.984Z,2.98
2023-07-21T17:07:33.326Z,2.70
2023-07-21T17:10:01.029Z,2.90
2023-07-21T17:12:28.754Z,3.10
2023-07-21T17:14:56.425Z,3.10
2023-07-21T17:17:24.340Z,3.00
2023-07-21T17:19:52.182Z,3.58
2023-07-21T17:22:19.737Z,3.15
2023-07-21T17:24:49.700Z,4.12
2023-07-21T17:27:17.343Z,5.20
2023-07-21T17:29:45.482Z,5.05
2023-07-21T17:32:13.213Z,5.20
2023-07-21T17:34:40.762Z,6.05
2023-07-21T17:37:08.517Z,5.53
2023-07-21T17:39:38.085Z,4.70
2023-07-21T17:42:06.929Z,4.42
2023-07-21T17:44:35.026Z,4.37
2023-07-21T17:47:02.879Z,4.28
2023-07-21T17:49:30.731Z,5.08
2023-07-21T17:51:58.271Z,5.75
2023-07-21T17:54:25.899Z,5.92
2023-07-21T17:56:53.786Z,6.87
2023-07-21T17:59:21.371Z,7.55
2023-07-21T18:01:48.839Z,4.55
2023-07-21T18:04:16.793Z,4.50
2023-07-21T18:06:44.852Z,4.97
2023-07-21T18:09:12.921Z,4.25
2023-07-21T18:11:40.398Z,4.00
2023-07-21T18:14:08.009Z,4.17
2023-07-21T18:16:35.737Z,3.52
2023-07-21T18:19:04.020Z,6.08
2023-07-21T18:21:31.942Z,5.03
2023-07-21T18:23:59.517Z,4.10
2023-07-21T18:26:27.340Z,5.12
2023-07-21T18:28:55.361Z,4.30
2023-07-21T18:31:23.185Z,4.75
2023-07-21T18:33:50.784Z,4.70
2023-07-21T18:36:18.451Z,5.33
2023-07-21T18:38:47.136Z,5.03
2023-07-21T18:41:16.492Z,4.70
2023-07-21T18:43:44.480Z,4.65
2023-07-21T18:46:12.088Z,3.90
2023-07-21T18:48:40.164Z,6.10
2023-07-21T18:51:07.748Z,4.00
2023-07-21T18:53:37.224Z,3.60
2023-07-21T18:56:06.205Z,3.90
2023-07-21T18:58:33.913Z,3.42
2023-07-21T19:01:01.622Z,3.77
2023-07-21T19:03:29.760Z,3.60
2023-07-21T19:05:57.516Z,3.50
2023-07-21T19:08:25.239Z,3.45
2023-07-21T19:10:52.813Z,3.70
2023-07-21T19:13:20.661Z,3.45
2023-07-21T19:15:48.578Z,3.45
2023-07-21T19:18:16.317Z,4.00
2023-07-21T19:20:44.131Z,3.60
2023-07-21T19:23:11.582Z,4.35
2023-07-21T19:25:39.416Z,3.60
2023-07-21T19:28:07.078Z,4.00
2023-07-21T19:30:39.316Z,3.55
2023-07-21T19:33:06.980Z,3.45
2023-07-21T19:35:37.332Z,3.80
2023-07-21T19:38:05.052Z,4.25
2023-07-21T19:40:32.711Z,3.40
2023-07-21T19:43:00.353Z,3.92
2023-07-21T19:45:28.028Z,5.40
2023-07-21T19:47:55.793Z,3.60
2023-07-21T19:50:23.473Z,4.22
2023-07-21T19:52:51.347Z,4.00
2023-07-21T19:55:18.848Z,3.62
2023-07-21T19:57:46.257Z,3.33
2023-07-21T20:00:14.620Z,3.62
2023-07-21T20:02:42.302Z,3.45
2023-07-21T20:05:10.624Z,3.33
2023-07-21T20:07:38.858Z,3.77
2023-07-21T20:10:07.905Z,4.62
2023-07-21T20:12:35.620Z,3.12
2023-07-21T20:15:04.037Z,3.17
2023-07-21T20:17:31.855Z,3.10
2023-07-21T20:19:59.641Z,4.42
2023-07-21T20:22:27.710Z,3.20
2023-07-21T20:24:55.459Z,2.92
2023-07-21T20:27:23.253Z,3.08
2023-07-21T20:29:50.699Z,3.02
2023-07-21T20:32:18.531Z,3.45
2023-07-21T20:34:46.242Z,2.80
2023-07-21T20:37:14.060Z,2.87
2023-07-21T20:39:41.919Z,2.83
2023-07-21T20:42:11.251Z,3.80
2023-07-21T20:44:39.145Z,4.00
2023-07-21T20:47:06.812Z,3.33
2023-07-21T20:49:34.532Z,3.58
2023-07-21T20:52:02.347Z,3.20
2023-07-21T20:54:30.002Z,3.45
2023-07-21T20:56:57.707Z,3.12
2023-07-21T20:59:28.681Z,3.55
2023-07-21T21:01:54.943Z,3.60
2023-07-21T21:04:22.674Z,3.42
2023-07-21T21:06:50.325Z,3.75
2023-07-21T21:09:18.359Z,3.47
2023-07-21T21:11:45.917Z,3.65
2023-07-21T21:14:13.845Z,3.90
2023-07-21T21:16:41.800Z,3.58
2023-07-21T21:19:09.630Z,3.62
2023-07-21T21:21:37.387Z,3.55
2023-07-21T21:24:05.497Z,3.20
2023-07-21T21:26:33.316Z,3.05
2023-07-21T21:29:00.844Z,3.20
2023-07-21T21:31:28.482Z,3.67
2023-07-21T21:33:55.742Z,3.67
2023-07-21T21:36:23.636Z,3.60
2023-07-21T21:38:51.202Z,3.75
2023-07-21T21:41:18.923Z,3.65
2023-07-21T21:43:46.616Z,3.55
2023-07-21T21:46:14.404Z,3.35
2023-07-21T21:48:42.155Z,3.58
2023-07-21T21:51:09.968Z,3.27
2023-07-21T21:53:37.663Z,3.37
2023-07-21T21:56:05.509Z,3.35
2023-07-21T21:58:33.454Z,3.05
2023-07-21T22:01:03.282Z,2.98
2023-07-21T22:03:32.894Z,2.98
2023-07-21T22:06:01.631Z,3.12
2023-07-21T22:08:29.320Z,3.10
2023-07-21T22:10:57.230Z,3.05
2023-07-21T22:13:24.719Z,3.67
2023-07-21T22:15:52.504Z,3.25
2023-07-21T22:18:21.173Z,3.40
2023-07-21T22:20:48.876Z,2.98
2023-07-21T22:23:16.545Z,3.70
2023-07-21T22:25:44.306Z,3.50
2023-07-21T22:28:11.810Z,3.42
2023-07-21T22:30:39.351Z,3.45
2023-07-21T22:33:07.212Z,3.12
2023-07-21T22:35:35.137Z,3.00
2023-07-21T22:38:03.110Z,3.22
2023-07-21T22:40:30.908Z,3.17
2023-07-21T22:42:58.604Z,2.92
2023-07-21T22:45:26.195Z,3.00
2023-07-21T22:47:54.005Z,2.95
2023-07-21T22:50:21.839Z,3.58
2023-07-21T22:52:49.691Z,2.87
2023-07-21T22:55:17.513Z,3.60
2023-07-21T22:57:45.530Z,3.27
2023-07-21T23:00:14.659Z,3.70
2023-07-21T23:02:42.332Z,3.60
2023-07-21T23:05:10.215Z,3.52
2023-07-21T23:07:37.907Z,4.08
2023-07-21T23:10:07.097Z,4.87
2023-07-21T23:12:35.367Z,4.50
2023-07-21T23:15:03.097Z,5.10
2023-07-21T23:17:30.815Z,5.62
2023-07-21T23:19:59.059Z,5.65
2023-07-21T23:22:26.800Z,5.00
2023-07-21T23:24:54.737Z,5.03
2023-07-21T23:27:22.572Z,5.08
2023-07-21T23:29:50.241Z,5.25
2023-07-21T23:32:17.845Z,5.08
2023-07-21T23:34:45.362Z,4.87
2023-07-21T23:37:13.130Z,5.20
2023-07-21T23:39:41.100Z,5.45
2023-07-21T23:42:09.012Z,6.37
2023-07-21T23:44:36.699Z,6.90
2023-07-21T23:47:05.505Z,6.80
2023-07-21T23:49:33.260Z,5.50
2023-07-21T23:52:01.329Z,4.78
2023-07-21T23:54:28.999Z,4.50
2023-07-21T23:56:57.496Z,4.10
2023-07-21T23:59:25.135Z,2.92
